createdAt,value
2023-11-11T00:03:19.697Z,8.18
2023-11-11T00:08:24.172Z,8.24
2023-11-11T00:13:27.279Z,8.24
2023-11-11T00:18:30.292Z,8.26
2023-11-11T00:23:33.363Z,8.26
2023-11-11T00:28:41.688Z,8.23
2023-11-11T00:33:45.665Z,8.26
2023-11-11T00:38:49.219Z,8.18
2023-11-11T00:43:52.236Z,8.13
2023-11-11T00:48:55.247Z,8.13
2023-11-11T00:53:59.541Z,8.10
2023-11-11T00:59:02.602Z,8.08
2023-11-11T01:04:06.933Z,8.07
2023-11-11T01:09:14.651Z,8.09
2023-11-11T01:14:18.432Z,8.04
2023-11-11T01:19:21.520Z,7.95
2023-11-11T01:24:24.638Z,7.87
2023-11-11T01:29:27.756Z,7.83
2023-11-11T01:34:30.842Z,7.83
2023-11-11T01:39:33.890Z,7.83
2023-11-11T01:44:37.157Z,7.84
2023-11-11T01:49:40.969Z,7.89
2023-11-11T01:54:44.477Z,7.87
2023-11-11T01:59:48.332Z,7.85
2023-11-11T02:04:51.358Z,7.76
2023-11-11T02:09:54.538Z,7.67
2023-11-11T02:14:57.765Z,7.58
2023-11-11T02:20:02.078Z,7.56
2023-11-11T02:25:07.876Z,7.56
2023-11-11T02:30:13.437Z,7.55
2023-11-11T02:35:16.985Z,7.54
2023-11-11T02:40:19.976Z,7.58
2023-11-11T02:45:24.993Z,7.65
2023-11-11T02:50:29.360Z,7.59
2023-11-11T02:55:32.389Z,7.54
2023-11-11T03:00:37.762Z,7.48
2023-11-11T03:05:40.834Z,7.49
2023-11-11T03:10:43.937Z,7.55
2023-11-11T03:15:47.135Z,7.60
2023-11-11T03:20:50.277Z,7.67
2023-11-11T03:25:53.291Z,7.71
2023-11-11T03:30:56.329Z,7.72
2023-11-11T03:35:59.333Z,7.70
2023-11-11T03:41:02.355Z,7.70
2023-11-11T03:46:06.185Z,7.69
2023-11-11T03:51:09.741Z,7.67
2023-11-11T03:56:12.856Z,7.66
2023-11-11T04:01:15.887Z,7.69
2023-11-11T04:06:18.882Z,7.73
2023-11-11T04:11:23.495Z,7.74
2023-11-11T04:16:31.455Z,7.72
2023-11-11T04:21:34.821Z,7.69
2023-11-11T04:26:37.845Z,7.67
2023-11-11T04:31:40.854Z,7.63
2023-11-11T04:36:43.835Z,7.56
2023-11-11T04:41:48.840Z,7.55
2023-11-11T04:46:51.894Z,7.56
2023-11-11T04:51:54.941Z,7.60
2023-11-11T04:56:57.947Z,7.65
2023-11-11T05:02:00.973Z,7.73
2023-11-11T05:07:05.206Z,7.78
2023-11-11T05:12:10.175Z,7.78
2023-11-11T05:17:14.755Z,7.78
2023-11-11T05:22:17.990Z,7.80
2023-11-11T05:27:21.048Z,7.78
2023-11-11T05:32:24.448Z,7.78
2023-11-11T05:37:27.514Z,7.80
2023-11-11T05:42:30.501Z,7.83
2023-11-11T05:47:33.585Z,7.83
2023-11-11T05:52:36.659Z,7.84
2023-11-11T05:57:40.700Z,7.82
2023-11-11T06:02:44.842Z,7.79
2023-11-11T06:07:47.824Z,7.78
2023-11-11T06:12:50.964Z,7.80
2023-11-11T06:17:54.057Z,7.84
2023-11-11T06:28:03.630Z,7.90
2023-11-11T06:33:06.750Z,7.92
2023-11-11T06:38:12.279Z,7.92
2023-11-11T06:43:15.387Z,7.89
2023-11-11T06:48:18.651Z,7.86
2023-11-11T06:53:21.762Z,7.85
2023-11-11T06:58:24.753Z,7.88
2023-11-11T07:03:30.559Z,7.92
2023-11-11T07:08:34.962Z,8.04
2023-11-11T07:13:38.014Z,8.17
2023-11-11T07:18:42.610Z,8.30
2023-11-11T07:23:45.858Z,8.37
2023-11-11T07:28:50.539Z,8.39
2023-11-11T07:33:53.829Z,8.43
2023-11-11T07:38:58.405Z,8.42
2023-11-11T07:44:05.964Z,8.47
2023-11-11T07:49:14.431Z,8.52
2023-11-11T07:54:18.138Z,8.62
2023-11-11T07:59:21.130Z,8.71
2023-11-11T08:04:25.527Z,8.75
2023-11-11T08:09:28.778Z,8.69
2023-11-11T08:14:32.806Z,8.64
2023-11-11T08:19:35.844Z,8.62
2023-11-11T08:24:38.867Z,8.72
2023-11-11T08:29:41.854Z,8.85
2023-11-11T08:34:44.874Z,8.99
2023-11-11T08:39:49.063Z,9.02
2023-11-11T08:44:52.760Z,8.94
2023-11-11T08:49:56.510Z,8.94
2023-11-11T08:54:59.368Z,8.93
2023-11-11T09:00:02.720Z,8.91
2023-11-11T09:05:07.361Z,8.94
2023-11-11T09:10:10.869Z,8.99
2023-11-11T09:15:14.273Z,9.07
2023-11-11T09:20:17.880Z,9.09
2023-11-11T09:25:25.792Z,9.18
2023-11-11T09:30:32.590Z,9.26
2023-11-11T09:35:37.497Z,9.28
2023-11-11T09:40:42.362Z,9.19
2023-11-11T09:45:46.267Z,9.08
2023-11-11T09:50:50.380Z,8.99
2023-11-11T09:55:56.005Z,8.96
2023-11-11T10:00:59.522Z,9.00
2023-11-11T10:06:03.041Z,9.06
2023-11-11T10:11:10.546Z,9.13
2023-11-11T10:16:15.229Z,9.15
2023-11-11T10:21:24.002Z,9.11
2023-11-11T10:26:27.196Z,9.00
2023-11-11T10:31:38.023Z,8.94
2023-11-11T10:36:43.165Z,8.87
2023-11-11T10:41:48.014Z,8.82
2023-11-11T10:46:51.490Z,8.85
2023-11-11T10:52:00.243Z,8.91
2023-11-11T10:57:04.747Z,8.91
2023-11-11T11:02:13.134Z,8.86
2023-11-11T11:07:26.200Z,8.81
2023-11-11T11:12:58.087Z,8.77
2023-11-11T11:18:02.779Z,8.82
2023-11-11T11:23:08.796Z,8.89
2023-11-11T11:28:22.825Z,8.94
2023-11-11T11:33:29.071Z,8.97
2023-11-11T11:38:42.100Z,8.97
2023-11-11T11:43:52.792Z,8.92
2023-11-11T11:48:56.425Z,8.86
2023-11-11T11:54:00.445Z,8.89
2023-11-11T11:59:05.167Z,8.94
2023-11-11T12:04:08.841Z,8.97
2023-11-11T12:09:18.407Z,8.98
2023-11-11T12:14:22.980Z,8.99
2023-11-11T12:19:26.436Z,9.00
2023-11-11T12:24:30.944Z,8.99
2023-11-11T12:29:43.769Z,8.96
2023-11-11T12:34:52.982Z,8.97
2023-11-11T12:39:56.029Z,9.00
2023-11-11T12:44:59.151Z,9.02
2023-11-11T12:50:05.659Z,9.05
2023-11-11T12:55:22.741Z,9.10
2023-11-11T13:00:25.813Z,9.13
2023-11-11T13:05:30.077Z,9.12
2023-11-11T13:10:33.160Z,9.10
2023-11-11T13:15:36.229Z,9.03
2023-11-11T13:20:40.128Z,9.00
2023-11-11T13:25:43.422Z,9.03
2023-11-11T13:30:48.506Z,9.09
2023-11-11T13:35:56.638Z,9.17
2023-11-11T13:41:02.108Z,9.22
2023-11-11T13:46:06.368Z,9.22
2023-11-11T13:51:11.962Z,9.18
2023-11-11T13:56:15.370Z,9.12
2023-11-11T14:01:18.468Z,9.11
2023-11-11T14:06:23.028Z,9.10
2023-11-11T14:11:28.966Z,9.13
2023-11-11T14:16:32.420Z,9.09
2023-11-11T14:21:35.629Z,9.05
2023-11-11T14:26:47.957Z,9.05
2023-11-11T14:31:51.035Z,9.01
2023-11-11T14:36:55.174Z,8.92
2023-11-11T14:42:05.867Z,8.84
2023-11-11T14:47:11.601Z,8.76
2023-11-11T14:52:16.285Z,8.74
2023-11-11T14:57:19.940Z,8.75
2023-11-11T15:02:23.163Z,8.73
2023-11-11T15:07:26.644Z,8.72
2023-11-11T15:12:29.638Z,8.74
2023-11-11T15:17:33.769Z,8.69
2023-11-11T15:22:37.022Z,8.67
2023-11-11T15:27:41.468Z,8.69
2023-11-11T15:32:45.097Z,8.77
2023-11-11T15:37:48.681Z,8.85
2023-11-11T15:42:51.718Z,8.83
2023-11-11T15:47:56.097Z,8.79
2023-11-11T15:52:59.235Z,8.78
2023-11-11T15:58:02.332Z,8.79
2023-11-11T16:03:05.517Z,8.79
2023-11-11T16:08:10.238Z,8.82
2023-11-11T16:13:13.510Z,8.85
2023-11-11T16:18:16.735Z,8.91
2023-11-11T16:23:19.899Z,8.94
2023-11-11T16:28:22.892Z,8.94
2023-11-11T16:33:26.249Z,8.91
2023-11-11T16:38:29.707Z,8.87
2023-11-11T16:43:32.759Z,8.82
2023-11-11T16:48:35.947Z,8.79
2023-11-11T16:53:39.076Z,8.79
2023-11-11T16:58:42.340Z,8.79
2023-11-11T17:03:46.012Z,8.80
2023-11-11T17:08:48.965Z,8.80
2023-11-11T17:13:53.046Z,8.78
2023-11-11T17:18:56.914Z,8.73
2023-11-11T17:24:00.598Z,8.68
2023-11-11T17:29:03.525Z,8.64
2023-11-11T17:34:09.699Z,8.62
2023-11-11T17:39:12.808Z,8.62
2023-11-11T17:44:18.818Z,8.63
2023-11-11T17:49:21.876Z,8.64
2023-11-11T17:54:29.544Z,8.68
2023-11-11T17:59:32.865Z,8.69
2023-11-11T18:04:36.718Z,8.65
2023-11-11T18:09:41.572Z,8.60
2023-11-11T18:14:45.909Z,8.54
2023-11-11T18:26:11.499Z,8.52
2023-11-11T18:31:14.720Z,8.55
2023-11-11T18:36:17.779Z,8.58
2023-11-11T18:41:25.434Z,8.61
2023-11-11T18:46:28.506Z,8.63
2023-11-11T18:51:31.568Z,8.64
2023-11-11T18:56:35.245Z,8.60
2023-11-11T19:01:38.315Z,8.55
2023-11-11T19:06:44.348Z,8.48
2023-11-11T19:11:47.614Z,8.48
2023-11-11T19:16:50.746Z,8.51
2023-11-11T19:21:54.816Z,8.53
2023-11-11T19:26:58.228Z,8.54
2023-11-11T19:32:04.799Z,8.55
2023-11-11T19:37:09.724Z,8.53
2023-11-11T19:42:12.821Z,8.49
2023-11-11T19:47:15.906Z,8.45
2023-11-11T19:52:18.993Z,8.39
2023-11-11T19:57:24.698Z,8.34
2023-11-11T20:02:30.948Z,8.33
2023-11-11T20:07:40.825Z,8.33
2023-11-11T20:12:46.521Z,8.33
2023-11-11T20:17:50.609Z,8.37
2023-11-11T20:22:53.646Z,8.36
2023-11-11T20:27:57.116Z,8.31
2023-11-11T20:33:03.313Z,8.27
2023-11-11T20:38:07.068Z,8.28
2023-11-11T20:43:10.036Z,8.30
2023-11-11T20:48:14.595Z,8.31
2023-11-11T20:53:19.164Z,8.37
2023-11-11T20:58:22.477Z,8.43
2023-11-11T21:03:25.633Z,8.43
2023-11-11T21:08:29.269Z,8.38
2023-11-11T21:13:34.252Z,8.33
2023-11-11T21:18:37.255Z,8.28
2023-11-11T21:23:41.423Z,8.26
2023-11-11T21:28:44.541Z,8.28
2023-11-11T21:33:47.549Z,8.32
2023-11-11T21:38:50.568Z,8.37
2023-11-11T21:43:54.092Z,8.41
2023-11-11T21:48:57.174Z,8.38
2023-11-11T21:54:00.193Z,8.35
2023-11-11T21:59:03.410Z,8.30
2023-11-11T22:04:07.211Z,8.24
2023-11-11T22:09:10.403Z,8.21
2023-11-11T22:14:15.964Z,8.22
2023-11-11T22:19:19.619Z,8.25
2023-11-11T22:24:22.681Z,8.25
2023-11-11T22:29:25.786Z,8.22
2023-11-11T22:34:28.780Z,8.19
2023-11-11T22:39:31.907Z,8.16
2023-11-11T22:44:35.019Z,8.14
2023-11-11T22:49:40.562Z,8.16
2023-11-11T22:54:43.742Z,8.18
2023-11-11T22:59:46.757Z,8.25
2023-11-11T23:04:50.083Z,8.26
2023-11-11T23:09:58.029Z,8.19
2023-11-11T23:15:02.779Z,8.17
2023-11-11T23:20:09.799Z,8.13
2023-11-11T23:25:12.961Z,8.10
2023-11-11T23:30:16.068Z,8.18
2023-11-11T23:35:19.410Z,8.22
2023-11-11T23:40:22.826Z,8.19
2023-11-11T23:45:26.899Z,8.30
2023-11-11T23:50:29.941Z,8.34
2023-11-11T23:55:33.560Z,8.30
